Time;durP1;ratioP1;P1;durP2;ratioP2;P2;SDS_P1;SDS_P2;PMS_P1;PMS_P2;Temp;Humidity;BMP_temperature;BMP_pressure;BME280_temperature;BME280_humidity;BME280_pressure;Samples;Min_cycle;Max_cycle;Signal;HPM_P1;HPM_P2
2021/12/16 00:03:52;;;;;;;25.80;4.18;;;10.80;99.90;;;;;;6202220;23;20036;-82
2021/12/16 00:06:51;;;;;;;24.17;4.03;;;10.80;99.90;;;;;;6176851;23;20025;-81
2021/12/16 00:09:08;;;;;;;23.92;4.15;;;10.80;99.90;;;;;;6176946;23;20439;-82
2021/12/16 00:35:33;;;;;;;16.73;3.80;;;11.50;99.90;;;;;;6177431;22;20535;-82
2021/12/16 00:37:59;;;;;;;22.35;4.65;;;10.50;99.90;;;;;;6151803;23;20017;-82
2021/12/16 00:40:25;;;;;;;26.13;4.78;;;11.40;99.90;;;;;;6177528;23;20056;-83
2021/12/16 00:42:55;;;;;;;20.58;3.80;;;11.00;99.90;;;;;;6176841;23;20359;-81
2021/12/16 00:45:40;;;;;;;23.58;4.28;;;10.50;99.90;;;;;;6176950;23;20123;-82
2021/12/16 00:48:22;;;;;;;17.75;3.92;;;10.50;99.90;;;;;;6176583;23;20013;-82
2021/12/16 00:56:14;;;;;;;18.88;4.25;;;10.40;99.90;;;;;;6202181;23;20484;-82
2021/12/16 00:58:49;;;;;;;15.10;3.30;;;11.90;99.90;;;;;;6151725;23;20367;-81
2021/12/16 01:01:41;;;;;;;19.23;4.00;;;11.20;99.90;;;;;;6152130;23;20013;-81
2021/12/16 01:34:34;;;;;;;27.50;3.70;;;10.50;99.90;;;;;;6200790;23;20020;-81
2021/12/16 01:37:30;;;;;;;26.63;4.13;;;10.50;99.90;;;;;;6175774;23;20017;-82
2021/12/16 01:42:32;;;;;;;25.95;3.92;;;10.30;99.90;;;;;;6201637;23;20029;-82
2021/12/16 01:47:58;;;;;;;17.95;4.15;;;11.80;99.90;;;;;;6200707;23;20048;-82
2021/12/16 01:50:33;;;;;;;21.10;4.05;;;11.80;99.90;;;;;;6176531;23;20017;-82
2021/12/16 01:53:21;;;;;;;23.20;3.60;;;12.20;99.90;;;;;;6174997;23;20018;-81
2021/12/16 01:56:00;;;;;;;16.95;3.72;;;10.80;99.90;;;;;;6151212;23;20025;-83
2021/12/16 01:58:30;;;;;;;15.07;4.07;;;10.60;99.90;;;;;;6151167;23;20347;-82
2021/12/16 02:01:29;;;;;;;27.55;3.85;;;11.80;99.90;;;;;;6175837;23;20017;-81
2021/12/16 02:03:54;;;;;;;28.17;5.55;;;10.40;99.90;;;;;;6175773;23;20028;-82
2021/12/16 02:06:43;;;;;;;26.13;4.63;;;10.60;99.90;;;;;;6175774;23;20299;-82
2021/12/16 02:09:19;;;;;;;18.02;3.83;;;10.60;99.90;;;;;;6175226;23;20013;-81
2021/12/16 02:11:56;;;;;;;18.58;4.10;;;10.60;99.90;;;;;;6153021;23;20070;-82
2021/12/16 02:28:39;;;;;;;19.67;3.90;;;10.30;99.90;;;;;;6202055;23;20021;-83
2021/12/16 02:31:25;;;;;;;25.50;4.32;;;12.10;99.90;;;;;;6177425;23;20055;-82
2021/12/16 02:36:41;;;;;;;24.42;4.53;;;11.20;99.90;;;;;;6202644;23;20025;-81
2021/12/16 02:39:13;;;;;;;17.10;3.65;;;11.30;99.90;;;;;;6177066;23;20088;-82
2021/12/16 02:41:41;;;;;;;20.58;3.92;;;10.40;99.90;;;;;;6177309;23;20347;-81
2021/12/16 02:49:23;;;;;;;25.33;3.75;;;10.50;99.90;;;;;;6202372;23;20063;-81
2021/12/16 02:51:50;;;;;;;21.13;3.67;;;12.20;99.90;;;;;;6177016;23;20134;-82
2021/12/16 02:54:15;;;;;;;20.92;4.07;;;11.00;99.90;;;;;;6177435;23;20013;-82
2021/12/16 02:56:41;;;;;;;18.80;3.70;;;11.80;99.90;;;;;;6177247;23;20025;-82
2021/12/16 02:59:07;;;;;;;19.75;4.35;;;11.90;99.90;;;;;;6152066;23;20021;-81
2021/12/16 03:01:43;;;;;;;29.75;4.30;;;12.10;99.90;;;;;;6152059;23;20024;-82
2021/12/16 03:04:13;;;;;;;20.38;4.10;;;10.10;99.90;;;;;;6177343;23;20017;-82
2021/12/16 03:06:41;;;;;;;21.73;3.95;;;10.40;99.90;;;;;;6177157;23;20351;-82
2021/12/16 03:09:10;;;;;;;19.52;3.55;;;11.60;99.90;;;;;;6152162;23;20024;-82
2021/12/16 03:11:50;;;;;;;22.30;4.13;;;10.30;99.90;;;;;;6177045;23;20478;-82
2021/12/16 03:14:24;;;;;;;28.48;4.03;;;10.80;99.90;;;;;;6152258;23;20017;-82
2021/12/16 03:17:07;;;;;;;31.67;5.20;;;10.60;99.90;;;;;;6177054;23;20045;-81
2021/12/16 03:22:28;;;;;;;36.60;4.00;;;10.10;99.90;;;;;;6176524;23;20356;-82
2021/12/16 03:25:10;;;;;;;20.35;4.28;;;12.30;99.90;;;;;;6176664;23;20095;-82
2021/12/16 03:33:17;;;;;;;18.73;4.32;;;10.30;99.90;;;;;;6176367;22;20025;-82
2021/12/16 03:36:03;;;;;;;20.17;4.25;;;10.80;99.90;;;;;;6177319;23;20017;-82
2021/12/16 03:38:27;;;;;;;20.25;3.58;;;11.20;99.90;;;;;;6176783;23;20017;-82
2021/12/16 03:40:52;;;;;;;30.35;4.68;;;10.60;99.90;;;;;;6176422;23;20100;-82
2021/12/16 03:43:19;;;;;;;23.05;4.90;;;12.10;99.90;;;;;;6176785;23;20023;-82
2021/12/16 03:48:52;;;;;;;18.38;4.75;;;10.60;99.90;;;;;;6202150;23;20025;-82
2021/12/16 03:51:24;;;;;;;24.02;4.80;;;10.40;99.90;;;;;;6176797;23;20103;-81
2021/12/16 03:53:57;;;;;;;38.38;5.00;;;11.60;99.90;;;;;;6175786;23;20017;-82
2021/12/16 03:56:23;;;;;;;26.73;4.88;;;10.30;99.90;;;;;;6177031;23;20013;-82
2021/12/16 03:58:50;;;;;;;22.67;4.90;;;10.30;99.90;;;;;;6176623;22;20350;-82
2021/12/16 04:01:20;;;;;;;26.98;4.95;;;11.20;99.90;;;;;;6176949;23;20009;-82
2021/12/16 04:03:49;;;;;;;36.50;5.50;;;10.90;99.90;;;;;;6152178;23;20021;-81
2021/12/16 04:06:16;;;;;;;18.20;4.68;;;12.10;99.90;;;;;;6176796;23;20069;-82
2021/12/16 04:08:42;;;;;;;22.75;5.40;;;10.30;99.90;;;;;;6152167;23;20028;-82
2021/12/16 04:11:18;;;;;;;19.45;4.85;;;12.10;99.90;;;;;;6176683;23;20021;-82
2021/12/16 04:14:00;;;;;;;21.00;5.00;;;11.90;99.90;;;;;;6151976;23;20355;-81
2021/12/16 04:16:31;;;;;;;28.90;5.43;;;10.50;99.90;;;;;;6151742;23;20112;-82
2021/12/16 04:18:59;;;;;;;25.30;5.72;;;10.60;99.90;;;;;;6177213;23;20035;-82
2021/12/16 04:21:27;;;;;;;25.17;5.60;;;10.60;99.90;;;;;;6176795;23;20035;-82
2021/12/16 04:23:56;;;;;;;27.95;5.50;;;11.40;99.90;;;;;;6176187;23;20049;-83
2021/12/16 04:26:23;;;;;;;25.45;5.50;;;12.00;99.90;;;;;;6151986;23;20036;-82
2021/12/16 04:28:49;;;;;;;23.95;5.82;;;10.30;99.90;;;;;;6176761;23;20447;-82
2021/12/16 04:31:15;;;;;;;28.98;5.85;;;10.40;99.90;;;;;;6176808;23;20034;-82
2021/12/16 04:33:40;;;;;;;29.33;5.78;;;11.10;99.90;;;;;;6176198;23;20017;-81
2021/12/16 04:36:09;;;;;;;25.05;5.28;;;11.70;99.90;;;;;;6176632;23;20407;-81
2021/12/16 04:38:36;;;;;;;25.08;5.50;;;11.50;99.90;;;;;;6152492;23;20453;-82
2021/12/16 04:41:05;;;;;;;24.27;5.47;;;10.20;99.90;;;;;;6151871;23;20021;-82
2021/12/16 04:43:39;;;;;;;31.30;5.50;;;10.40;99.90;;;;;;6176863;23;20374;-81
2021/12/16 04:46:08;;;;;;;26.92;6.13;;;10.40;99.90;;;;;;6152194;23;20048;-82
2021/12/16 04:48:35;;;;;;;33.95;6.70;;;10.30;99.90;;;;;;6152351;23;20070;-82
2021/12/16 04:51:03;;;;;;;31.13;6.38;;;11.70;99.90;;;;;;6176715;23;20014;-82
2021/12/16 04:53:29;;;;;;;35.85;6.50;;;11.80;99.90;;;;;;6176454;22;20024;-82
2021/12/16 04:55:54;;;;;;;24.60;6.43;;;10.10;99.90;;;;;;6176391;23;20017;-82
2021/12/16 04:58:23;;;;;;;32.28;6.32;;;10.30;99.90;;;;;;6176873;23;20446;-81
2021/12/16 05:00:49;;;;;;;23.20;6.50;;;10.50;99.90;;;;;;6176949;23;20066;-82
2021/12/16 05:03:15;;;;;;;24.33;5.53;;;11.20;99.90;;;;;;6150910;23;20024;-82
2021/12/16 05:05:41;;;;;;;32.05;6.22;;;10.50;99.90;;;;;;6176195;23;20013;-81
2021/12/16 05:08:07;;;;;;;29.15;5.90;;;10.20;99.90;;;;;;6175611;23;20014;-82
2021/12/16 05:10:33;;;;;;;27.83;6.60;;;10.30;99.90;;;;;;6175461;23;20017;-83
2021/12/16 05:13:00;;;;;;;20.60;5.95;;;12.00;99.90;;;;;;6175121;23;20017;-81
2021/12/16 05:15:32;;;;;;;22.17;6.47;;;12.20;99.90;;;;;;6176731;23;20028;-82
2021/12/16 05:18:02;;;;;;;17.73;5.65;;;11.40;99.90;;;;;;6176349;23;20321;-81
2021/12/16 05:20:31;;;;;;;20.10;6.03;;;10.80;99.90;;;;;;6176134;23;20492;-82
2021/12/16 05:26:07;;;;;;;25.87;5.20;;;10.20;99.90;;;;;;6200756;23;20025;-81
2021/12/16 05:28:33;;;;;;;31.55;5.57;;;11.00;99.90;;;;;;6176172;23;20013;-81
2021/12/16 05:30:59;;;;;;;23.83;5.70;;;11.00;99.90;;;;;;6175984;22;20020;-81
2021/12/16 05:33:27;;;;;;;20.17;5.47;;;11.70;99.90;;;;;;6151262;23;20541;-81
2021/12/16 05:35:54;;;;;;;24.88;5.43;;;10.20;99.90;;;;;;6151017;23;20066;-81
2021/12/16 05:38:20;;;;;;;39.78;6.05;;;11.00;99.90;;;;;;6175704;23;20324;-81
2021/12/16 05:40:46;;;;;;;34.53;5.50;;;10.80;99.90;;;;;;6175451;23;20017;-81
2021/12/16 05:43:16;;;;;;;36.72;5.90;;;10.30;99.90;;;;;;6175196;23;20017;-81
2021/12/16 05:45:44;;;;;;;25.15;5.85;;;10.70;99.90;;;;;;6152104;23;20039;-82
2021/12/16 05:48:12;;;;;;;25.85;6.28;;;9.90;99.90;;;;;;6177253;23;20343;-82
2021/12/16 05:50:41;;;;;;;39.63;6.50;;;9.90;99.90;;;;;;6153858;23;20071;-81
2021/12/16 05:53:07;;;;;;;31.98;6.95;;;11.80;99.90;;;;;;6180127;23;20017;-81
2021/12/16 05:55:34;;;;;;;27.30;6.05;;;10.10;99.90;;;;;;6155054;23;20020;-81
2021/12/16 05:58:02;;;;;;;35.17;6.32;;;9.90;99.90;;;;;;6154671;23;20049;-81
2021/12/16 06:00:33;;;;;;;34.50;5.97;;;10.40;99.90;;;;;;6153274;23;20017;-82
2021/12/16 06:02:58;;;;;;;35.10;5.65;;;10.20;99.90;;;;;;6152638;23;20075;-82
2021/12/16 06:05:25;;;;;;;29.27;6.18;;;11.30;99.90;;;;;;6152962;23;20013;-81
2021/12/16 06:07:51;;;;;;;35.65;6.07;;;10.20;99.90;;;;;;6177129;23;20025;-82
2021/12/16 06:12:57;;;;;;;36.10;7.22;;;11.90;99.90;;;;;;6201738;23;20055;-81
2021/12/16 06:15:54;;;;;;;25.20;6.70;;;10.90;99.90;;;;;;6152980;23;20017;-82
2021/12/16 06:27:01;;;;;;;22.23;5.65;;;10.10;99.90;;;;;;6145088;23;20032;-81
2021/12/16 06:29:27;;;;;;;35.40;6.10;;;9.60;99.90;;;;;;6097530;23;20104;-81
2021/12/16 06:31:53;;;;;;;33.53;5.50;;;10.10;99.90;;;;;;6121792;23;20051;-82
2021/12/16 06:34:19;;;;;;;30.95;6.38;;;10.50;99.90;;;;;;6122018;23;20109;-82
2021/12/16 06:36:46;;;;;;;27.73;5.85;;;10.70;99.90;;;;;;6097324;23;20017;-81
2021/12/16 06:39:12;;;;;;;28.55;5.88;;;10.70;99.90;;;;;;6121579;23;20027;-81
2021/12/16 06:41:38;;;;;;;41.88;6.13;;;10.60;99.90;;;;;;6121891;23;20014;-81
2021/12/16 06:44:15;;;;;;;36.45;6.65;;;9.80;99.90;;;;;;6121539;23;20014;-81
2021/12/16 06:46:44;;;;;;;27.90;6.00;;;11.50;99.90;;;;;;6121703;23;20128;-81
2021/12/16 06:49:12;;;;;;;38.28;6.38;;;10.90;99.90;;;;;;6097716;23;20090;-81
2021/12/16 06:51:47;;;;;;;29.23;5.95;;;10.00;99.90;;;;;;6121677;23;20017;-81
2021/12/16 06:54:22;;;;;;;30.52;6.60;;;11.10;99.90;;;;;;6121343;23;20348;-81
2021/12/16 06:56:57;;;;;;;25.10;5.20;;;10.20;99.90;;;;;;6121636;23;20020;-81
2021/12/16 06:59:30;;;;;;;84.53;5.60;;;10.20;99.90;;;;;;6121750;23;20096;-81
2021/12/16 07:02:15;;;;;;;21.77;5.60;;;10.50;99.90;;;;;;6121758;23;20622;-84
2021/12/16 07:04:43;;;;;;;36.97;5.27;;;10.40;99.90;;;;;;6121900;23;20010;-81
2021/12/16 07:07:10;;;;;;;74.15;5.70;;;9.30;99.90;;;;;;6097361;23;20304;-82
2021/12/16 07:09:37;;;;;;;388.00;13.18;;;9.00;99.90;;;;;;6121703;23;20017;-81
2021/12/16 07:12:05;;;;;;;95.55;6.18;;;9.20;99.90;;;;;;6097323;23;20010;-82
2021/12/16 07:14:36;;;;;;;253.10;8.35;;;9.00;99.90;;;;;;6121185;23;20041;-82
2021/12/16 07:17:06;;;;;;;139.38;6.95;;;9.00;99.90;;;;;;6119425;23;20017;-80
2021/12/16 07:19:33;;;;;;;26.58;5.60;;;9.30;99.90;;;;;;6123339;23;20045;-79
2021/12/16 07:21:58;;;;;;;24.67;6.50;;;9.40;99.90;;;;;;6122846;23;20014;-81
2021/12/16 07:24:24;;;;;;;36.97;7.38;;;10.10;99.90;;;;;;6087591;23;1067156;-78
2021/12/16 07:26:50;;;;;;;46.60;7.80;;;11.30;99.90;;;;;;6179327;23;20029;-77
2021/12/16 07:29:16;;;;;;;39.28;7.57;;;9.40;99.90;;;;;;6178465;23;20108;-79
2021/12/16 07:31:42;;;;;;;49.38;7.97;;;11.20;99.90;;;;;;6179654;23;20024;-80
2021/12/16 07:34:10;;;;;;;45.88;7.80;;;10.60;99.90;;;;;;6179097;23;20021;-79
2021/12/16 07:36:38;;;;;;;39.28;7.28;;;11.20;99.90;;;;;;6154481;23;20025;-79
2021/12/16 07:39:08;;;;;;;48.03;7.72;;;10.30;99.90;;;;;;6178687;23;20017;-78
2021/12/16 07:41:35;;;;;;;36.72;6.95;;;9.40;99.90;;;;;;6178654;23;20518;-79
2021/12/16 07:44:11;;;;;;;36.60;7.18;;;10.40;99.90;;;;;;6178550;23;20014;-79
2021/12/16 07:46:44;;;;;;;34.47;7.85;;;9.80;99.90;;;;;;6179302;23;20021;-81
2021/12/16 07:49:12;;;;;;;28.92;6.88;;;10.60;99.90;;;;;;6179747;23;20013;-82
2021/12/16 07:51:40;;;;;;;37.63;6.82;;;10.00;99.90;;;;;;6179333;23;20044;-79
2021/12/16 07:54:07;;;;;;;41.42;6.80;;;10.40;99.90;;;;;;6177720;23;20044;-80
2021/12/16 07:56:33;;;;;;;35.47;7.00;;;10.60;99.90;;;;;;6179506;23;20097;-79
2021/12/16 07:58:59;;;;;;;124.68;8.95;;;9.50;99.90;;;;;;6179576;23;20016;-78
2021/12/16 08:01:26;;;;;;;85.50;5.80;;;9.50;99.90;;;;;;6179753;23;20051;-79
2021/12/16 08:03:52;;;;;;;53.20;5.25;;;9.00;99.90;;;;;;6179675;23;20013;-79
2021/12/16 08:06:23;;;;;;;51.05;6.38;;;10.50;99.90;;;;;;6178903;23;20758;-79
2021/12/16 08:08:53;;;;;;;171.57;7.88;;;8.90;99.90;;;;;;6178549;23;20021;-79
2021/12/16 08:11:19;;;;;;;139.95;7.28;;;8.50;99.90;;;;;;6154679;23;20063;-80
2021/12/16 08:13:44;;;;;;;160.20;7.50;;;8.20;99.90;;;;;;6179055;23;20017;-79
2021/12/16 08:16:13;;;;;;;179.95;8.63;;;8.00;99.90;;;;;;6154619;23;20094;-80
2021/12/16 08:18:42;;;;;;;457.48;13.68;;;9.40;99.90;;;;;;6154816;23;20348;-79
2021/12/16 08:21:07;;;;;;;440.38;13.25;;;8.40;99.90;;;;;;6153795;23;20020;-80
2021/12/16 08:23:33;;;;;;;452.73;14.90;;;8.30;99.90;;;;;;6177561;23;20056;-79
2021/12/16 08:25:59;;;;;;;418.50;12.25;;;8.10;99.90;;;;;;6178740;23;20454;-79
2021/12/16 08:28:28;;;;;;;214.02;8.70;;;8.30;99.90;;;;;;6180043;22;20020;-80
2021/12/16 08:30:54;;;;;;;260.85;11.77;;;10.10;99.90;;;;;;6179526;23;20382;-79
2021/12/16 08:33:21;;;;;;;236.45;9.23;;;8.60;99.90;;;;;;6179608;23;20009;-79
2021/12/16 08:35:50;;;;;;;20.35;6.22;;;9.10;99.90;;;;;;6177398;23;20021;-80
2021/12/16 08:38:23;;;;;;;41.17;7.13;;;8.30;99.90;;;;;;6176897;23;20064;-81
2021/12/16 08:40:51;;;;;;;223.05;7.90;;;8.10;99.90;;;;;;6152710;23;20048;-80
2021/12/16 08:43:19;;;;;;;362.98;9.93;;;8.60;99.90;;;;;;6176642;23;20021;-81
2021/12/16 08:45:45;;;;;;;317.27;11.07;;;8.10;99.90;;;;;;6177276;23;20024;-81
2021/12/16 08:48:12;;;;;;;161.40;7.93;;;7.80;99.90;;;;;;6177262;23;20017;-81
2021/12/16 08:50:42;;;;;;;164.75;6.55;;;8.40;99.90;;;;;;6177815;23;20378;-81
2021/12/16 08:53:08;;;;;;;124.20;7.47;;;8.40;99.90;;;;;;6177137;22;20047;-83
2021/12/16 08:55:36;;;;;;;60.50;5.85;;;10.10;99.90;;;;;;6176121;23;20355;-80
2021/12/16 08:58:05;;;;;;;91.60;8.77;;;8.80;99.90;;;;;;6179484;23;20390;-80
2021/12/16 09:00:37;;;;;;;61.50;6.50;;;8.50;99.90;;;;;;6154845;23;20017;-80
2021/12/16 09:03:03;;;;;;;48.63;5.78;;;8.70;99.90;;;;;;6179457;23;20052;-80
2021/12/16 09:05:29;;;;;;;25.15;5.88;;;8.80;99.90;;;;;;6154811;23;20109;-79
2021/12/16 09:07:55;;;;;;;31.88;5.85;;;8.70;99.90;;;;;;6179665;23;20024;-80
2021/12/16 09:10:27;;;;;;;31.92;7.72;;;10.10;99.90;;;;;;6179162;22;20096;-80
2021/12/16 09:15:26;;;;;;;18.73;7.55;;;10.00;99.90;;;;;;6202566;23;20021;-78
2021/12/16 09:17:53;;;;;;;19.85;8.35;;;10.80;99.90;;;;;;6179316;23;20126;-80
2021/12/16 09:20:19;;;;;;;26.58;7.97;;;9.60;99.90;;;;;;6179222;22;20024;-80
2021/12/16 09:22:46;;;;;;;24.98;8.35;;;10.20;99.90;;;;;;6179057;23;20032;-80
2021/12/16 09:25:12;;;;;;;30.35;9.45;;;11.00;99.90;;;;;;6178361;23;20017;-82
2021/12/16 09:27:39;;;;;;;33.22;9.63;;;10.70;99.90;;;;;;6155127;23;20021;-78
2021/12/16 09:30:08;;;;;;;29.55;9.57;;;9.70;99.90;;;;;;6153550;23;20035;-81
2021/12/16 09:32:36;;;;;;;29.55;10.40;;;9.70;99.90;;;;;;6179058;23;20048;-80
2021/12/16 09:35:03;;;;;;;36.88;11.65;;;9.80;99.90;;;;;;6179098;23;20013;-80
2021/12/16 09:37:29;;;;;;;29.50;9.93;;;10.10;99.90;;;;;;6179090;22;20084;-81
2021/12/16 09:39:55;;;;;;;35.00;10.30;;;12.00;99.90;;;;;;6154131;23;20359;-81
2021/12/16 09:42:22;;;;;;;32.22;10.05;;;10.40;99.90;;;;;;6178754;22;20330;-81
2021/12/16 09:44:47;;;;;;;28.45;9.60;;;10.10;99.90;;;;;;6154427;23;20017;-79
2021/12/16 09:47:14;;;;;;;28.73;10.90;;;10.10;99.90;;;;;;6178914;22;20017;-80
2021/12/16 09:49:40;;;;;;;22.88;9.68;;;10.20;99.90;;;;;;6154388;23;20459;-81
2021/12/16 09:52:10;;;;;;;36.60;10.60;;;11.00;99.90;;;;;;6178718;23;20017;-81
2021/12/16 09:54:37;;;;;;;28.75;10.57;;;10.60;99.90;;;;;;6154213;23;20354;-77
2021/12/16 09:57:04;;;;;;;29.92;10.73;;;12.60;99.90;;;;;;6178693;23;20032;-79
2021/12/16 09:59:32;;;;;;;23.92;10.38;;;11.10;99.90;;;;;;6178517;23;20043;-78
2021/12/16 10:02:01;;;;;;;24.90;9.73;;;11.40;99.90;;;;;;6178322;23;20284;-79
2021/12/16 10:04:31;;;;;;;25.38;11.35;;;10.90;99.90;;;;;;6178339;23;20439;-78
2021/12/16 10:07:02;;;;;;;26.80;9.32;;;11.10;99.90;;;;;;6153072;23;20052;-79
2021/12/16 10:09:28;;;;;;;31.73;10.13;;;11.10;99.90;;;;;;6178263;23;20013;-81
2021/12/16 10:11:57;;;;;;;26.42;10.82;;;10.90;99.90;;;;;;6177152;23;20385;-81
2021/12/16 10:19:41;;;;;;;35.63;10.33;;;11.20;99.90;;;;;;6178281;23;20451;-79
2021/12/16 10:22:16;;;;;;;27.20;9.30;;;11.80;99.90;;;;;;6177074;23;20055;-78
2021/12/16 10:24:42;;;;;;;30.30;9.82;;;11.80;99.90;;;;;;6176866;23;20028;-81
2021/12/16 10:27:11;;;;;;;29.67;10.05;;;12.30;99.90;;;;;;6178234;23;20017;-79
2021/12/16 10:29:40;;;;;;;27.83;9.98;;;11.80;99.90;;;;;;6178198;22;20017;-81
2021/12/16 10:32:27;;;;;;;27.20;9.55;;;12.50;99.90;;;;;;6154527;23;20069;-79
2021/12/16 10:34:57;;;;;;;;;;;11.70;99.90;;;;;;6155260;23;20021;-80
2021/12/16 10:37:35;;;;;;;26.70;9.70;;;11.40;99.90;;;;;;6179260;23;20277;-80
2021/12/16 10:40:28;;;;;;;22.38;10.18;;;11.50;99.90;;;;;;6179663;23;20020;-81
2021/12/16 10:42:55;;;;;;;32.85;9.90;;;12.00;99.90;;;;;;6154710;23;20074;-80
2021/12/16 10:45:34;;;;;;;34.97;10.18;;;12.20;99.90;;;;;;6179369;23;20024;-80
2021/12/16 10:48:19;;;;;;;29.23;9.60;;;11.90;99.90;;;;;;6154536;23;20056;-79
2021/12/16 10:50:54;;;;;;;36.30;10.23;;;11.80;99.90;;;;;;6154873;23;20013;-82
2021/12/16 10:53:48;;;;;;;37.47;9.35;;;12.20;99.90;;;;;;6178603;23;20021;-82
2021/12/16 10:56:16;;;;;;;30.27;9.13;;;12.10;99.90;;;;;;6155057;23;20017;-90
2021/12/16 10:58:52;;;;;;;35.63;9.93;;;11.80;99.90;;;;;;6155545;23;20056;-90
2021/12/16 11:01:38;;;;;;;32.30;10.05;;;12.10;99.90;;;;;;6156495;23;20009;-96
2021/12/16 11:04:13;;;;;;;30.53;9.90;;;12.10;99.90;;;;;;6156397;23;20051;-94
2021/12/16 11:06:50;;;;;;;25.52;10.55;;;12.20;99.90;;;;;;6157042;23;20018;-94
2021/12/16 11:12:56;;;;;;;33.10;10.57;;;13.00;99.90;;;;;;6182444;23;20297;-95
2021/12/16 11:15:29;;;;;;;40.20;11.63;;;11.90;99.90;;;;;;6156975;23;20017;-93
2021/12/16 11:17:54;;;;;;;39.20;12.10;;;12.00;99.90;;;;;;6156250;23;20104;-91
2021/12/16 11:20:24;;;;;;;34.70;10.82;;;11.90;99.90;;;;;;6156132;23;20055;-93
2021/12/16 11:22:54;;;;;;;34.70;10.77;;;11.70;99.90;;;;;;6156074;23;20017;-92
2021/12/16 11:25:26;;;;;;;38.83;10.80;;;11.80;99.90;;;;;;6155673;23;20017;-95
2021/12/16 11:28:09;;;;;;;43.95;11.07;;;12.00;99.90;;;;;;6155874;23;20021;-93
2021/12/16 11:31:33;;;;;;;28.70;10.93;;;11.90;99.90;;;;;;6157075;23;20517;-94
2021/12/16 11:59:55;;;;;;;28.95;12.35;;;13.00;99.90;;;;;;6151334;23;20359;-92
2021/12/16 12:02:28;;;;;;;36.42;12.50;;;12.50;99.90;;;;;;6125093;22;20029;-94
2021/12/16 12:05:19;;;;;;;41.15;12.43;;;12.10;99.90;;;;;;6137785;23;20024;-92
2021/12/16 12:07:50;;;;;;;40.55;12.02;;;12.00;99.90;;;;;;6154853;23;20025;-94
2021/12/16 12:10:40;;;;;;;40.20;11.68;;;11.80;99.90;;;;;;6155818;23;20089;-92
2021/12/16 12:13:09;;;;;;;43.05;11.90;;;12.20;99.90;;;;;;6155040;23;20017;-92
2021/12/16 12:15:52;;;;;;;42.65;12.35;;;11.80;99.90;;;;;;6155071;23;20049;-90
2021/12/16 12:18:41;;;;;;;41.10;13.15;;;12.30;99.90;;;;;;6157013;23;20066;-85
2021/12/16 12:21:28;;;;;;;40.20;12.32;;;12.10;99.90;;;;;;6179448;23;20024;-89
2021/12/16 12:24:21;;;;;;;43.00;12.20;;;11.90;99.90;;;;;;6155467;23;20376;-94
2021/12/16 12:26:52;;;;;;;33.03;12.23;;;12.00;99.90;;;;;;6135193;23;20100;-94
2021/12/16 12:29:23;;;;;;;30.58;11.68;;;12.80;99.90;;;;;;6132689;23;20013;-91
2021/12/16 12:32:07;;;;;;;30.20;11.13;;;11.80;99.90;;;;;;6131324;23;20029;-94
2021/12/16 12:34:41;;;;;;;31.27;11.25;;;13.50;99.90;;;;;;6260122;22;20065;-91
2021/12/16 12:37:22;;;;;;;;;;;;;;;;;;;;;
2021/12/16 12:39:54;;;;;;;40.83;11.52;;;12.30;99.90;;;;;;6179815;23;20025;-90
2021/12/16 12:42:21;;;;;;;35.60;10.88;;;12.50;99.90;;;;;;6131596;23;20028;-86
2021/12/16 12:44:47;;;;;;;31.75;9.60;;;12.10;99.90;;;;;;6154756;22;20013;-90
2021/12/16 12:47:17;;;;;;;42.50;10.00;;;12.40;99.90;;;;;;6130190;23;20336;-90
2021/12/16 12:49:47;;;;;;;39.50;8.35;;;12.20;99.90;;;;;;6130632;23;20021;-94
2021/12/16 12:52:23;;;;;;;36.55;8.73;;;12.20;99.90;;;;;;6134848;23;20032;-95
2021/12/16 12:55:01;;;;;;;43.03;10.20;;;12.10;99.90;;;;;;6154473;23;20017;-90
2021/12/16 12:57:32;;;;;;;27.55;10.40;;;12.30;99.90;;;;;;6131121;23;20013;-94
2021/12/16 12:59:59;;;;;;;30.25;10.60;;;11.50;99.90;;;;;;6181726;23;20092;-90
2021/12/16 13:02:32;;;;;;;29.98;12.68;;;12.20;99.90;;;;;;6155054;22;20021;-90
2021/12/16 13:05:12;;;;;;;34.15;13.45;;;12.40;99.90;;;;;;6130521;23;20017;-92
2021/12/16 13:08:02;;;;;;;37.05;13.43;;;12.30;99.90;;;;;;6131728;23;20013;-93
2021/12/16 13:12:03;;;;;;;;;;;;;;;;;;;;;
2021/12/16 13:14:40;;;;;;;30.17;11.60;;;12.60;99.90;;;;;;6181204;23;20048;-90
2021/12/16 13:28:44;;;;;;;33.65;11.40;;;12.50;99.90;;;;;;6148517;22;20503;-85
2021/12/16 13:31:27;;;;;;;31.63;12.25;;;12.20;99.90;;;;;;6124218;23;20021;-87
2021/12/16 13:33:58;;;;;;;37.22;13.13;;;12.20;99.90;;;;;;6124430;23;20398;-86
2021/12/16 13:36:47;;;;;;;41.00;13.57;;;12.40;99.90;;;;;;6124385;23;20056;-86
2021/12/16 13:39:20;;;;;;;29.20;12.75;;;12.40;99.90;;;;;;6124371;23;20036;-86
2021/12/16 13:41:57;;;;;;;39.20;13.68;;;12.50;99.90;;;;;;6100161;23;20049;-85
2021/12/16 13:44:46;;;;;;;34.85;13.93;;;12.30;99.90;;;;;;6123985;23;20317;-86
2021/12/16 13:47:26;;;;;;;38.67;13.25;;;12.10;99.90;;;;;;6123759;23;20025;-86
2021/12/16 14:00:07;;;;;;;48.40;14.30;;;11.80;99.90;;;;;;6123671;23;20017;-87
2021/12/16 14:01:54;;;;;;;68.47;15.80;;;11.60;99.90;;;;;;6124281;23;20479;-87
2021/12/16 14:04:41;;;;;;;103.28;15.68;;;11.80;99.90;;;;;;6123958;23;20014;-87
2021/12/16 14:10:16;;;;;;;160.65;17.33;;;11.30;99.90;;;;;;6125707;23;20351;-86
2021/12/16 14:43:40;;;;;;;48.33;15.68;;;13.10;99.90;;;;;;6180002;23;20100;-86
2021/12/16 14:46:09;;;;;;;51.42;16.73;;;11.10;99.90;;;;;;6179681;23;20013;-87
2021/12/16 14:48:35;;;;;;;48.92;17.13;;;11.20;99.90;;;;;;6179481;23;20347;-87
2021/12/16 14:51:12;;;;;;;51.40;16.33;;;11.30;99.90;;;;;;6154705;23;20362;-87
2021/12/16 14:53:42;;;;;;;39.15;15.65;;;11.50;99.90;;;;;;6154867;23;20017;-86
2021/12/16 14:56:16;;;;;;;56.75;17.40;;;11.90;99.90;;;;;;6179361;23;20074;-88
2021/12/16 14:58:50;;;;;;;45.92;18.13;;;11.50;99.90;;;;;;6154965;23;20021;-85
2021/12/16 15:01:23;;;;;;;60.67;18.73;;;11.90;99.90;;;;;;6153855;23;20017;-85
2021/12/16 15:03:50;;;;;;;47.35;17.33;;;11.20;99.90;;;;;;6154521;23;20021;-84
2021/12/16 15:06:26;;;;;;;44.35;18.05;;;11.50;99.90;;;;;;6178680;23;20017;-87
2021/12/16 15:11:44;;;;;;;43.58;17.67;;;12.70;99.90;;;;;;6180118;23;20052;-88
2021/12/16 15:14:30;;;;;;;42.17;18.75;;;11.30;99.90;;;;;;6179207;23;20021;-86
2021/12/16 15:36:37;;;;;;;39.10;16.05;;;11.30;99.90;;;;;;6178986;23;20017;-88
2021/12/16 15:39:24;;;;;;;36.13;16.10;;;11.40;99.90;;;;;;6154452;23;20044;-89
2021/12/16 15:44:52;;;;;;;41.75;17.77;;;11.50;99.90;;;;;;6179254;23;20017;-89
2021/12/16 15:47:19;;;;;;;42.28;18.20;;;11.50;99.90;;;;;;6178854;23;20463;-89
2021/12/16 15:53:33;;;;;;;40.85;18.98;;;12.00;99.90;;;;;;6180333;23;20021;-95
2021/12/16 15:56:13;;;;;;;60.42;18.27;;;11.60;99.90;;;;;;6155174;23;20346;-89
2021/12/16 15:59:04;;;;;;;42.33;17.75;;;11.30;99.90;;;;;;6155855;23;20319;-96
2021/12/16 16:02:02;;;;;;;49.40;17.58;;;11.60;99.90;;;;;;6179125;23;20028;-90
2021/12/16 16:05:07;;;;;;;41.88;15.75;;;12.80;99.90;;;;;;6180047;23;20017;-95
2021/12/16 16:08:21;;;;;;;42.38;15.93;;;11.60;99.90;;;;;;6176773;23;20353;-93
2021/12/16 16:11:02;;;;;;;50.60;17.30;;;11.10;99.90;;;;;;6179264;23;20028;-89
2021/12/16 16:17:24;;;;;;;48.97;22.38;;;11.70;99.90;;;;;;6181979;23;20016;-90
2021/12/16 16:20:07;;;;;;;54.58;22.02;;;11.60;99.90;;;;;;6156206;23;20038;-94
2021/12/16 16:22:32;;;;;;;51.95;22.98;;;11.80;99.90;;;;;;6156212;23;20096;-87
2021/12/16 16:25:03;;;;;;;65.57;23.15;;;11.50;99.90;;;;;;6180233;22;20074;-94
2021/12/16 16:34:45;;;;;;;59.55;21.17;;;11.90;99.90;;;;;;6149452;23;20091;-94
2021/12/16 16:44:28;;;;;;;80.50;17.63;;;10.30;99.90;;;;;;6123500;23;20022;-90
2021/12/16 16:47:08;;;;;;;142.13;19.52;;;11.70;99.90;;;;;;6099346;23;20045;-89
2021/12/16 16:50:04;;;;;;;119.72;21.08;;;10.20;99.90;;;;;;6123743;23;20067;-91
2021/12/16 16:53:18;;;;;;;160.02;22.48;;;10.80;99.90;;;;;;6151755;23;20024;-92
2021/12/16 16:55:46;;;;;;;222.30;23.23;;;11.70;99.90;;;;;;6185500;22;20473;-86
2021/12/16 16:58:15;;;;;;;196.77;24.20;;;11.20;99.90;;;;;;6180547;23;20340;-88
2021/12/16 17:00:44;;;;;;;312.90;25.88;;;10.90;99.90;;;;;;6154133;23;20384;-87
2021/12/16 17:03:13;;;;;;;257.48;27.27;;;10.70;99.90;;;;;;6178702;23;20017;-87
2021/12/16 17:05:47;;;;;;;277.83;26.27;;;11.30;99.90;;;;;;6154096;23;20009;-87
2021/12/16 17:08:17;;;;;;;411.17;30.75;;;10.60;99.90;;;;;;6178481;23;20055;-87
2021/12/16 17:10:47;;;;;;;331.67;29.77;;;10.50;99.90;;;;;;6154529;23;20016;-87
2021/12/16 17:13:24;;;;;;;444.35;30.58;;;11.00;99.90;;;;;;6153672;23;20092;-88
2021/12/16 17:18:25;;;;;;;472.63;30.33;;;11.10;99.90;;;;;;6178439;23;20021;-87
2021/12/16 17:20:54;;;;;;;570.03;33.67;;;10.90;99.90;;;;;;6153918;23;20774;-87